sensor_id;sensor_type;location;lat;lon;timestamp;P1;durP1;ratioP1;P2;durP2;ratioP2
49530;SDS011;38889;30.622;104.088;2022-07-17T00:02:13;6.57;;;3.67;;
49530;SDS011;38889;30.622;104.088;2022-07-17T00:04:41;4.57;;;3.45;;
49530;SDS011;38889;30.622;104.088;2022-07-17T00:07:08;4.30;;;3.15;;
49530;SDS011;38889;30.622;104.088;2022-07-17T00:09:35;6.22;;;3.63;;
49530;SDS011;38889;30.622;104.088;2022-07-17T00:12:02;6.68;;;3.60;;
49530;SDS011;38889;30.622;104.088;2022-07-17T00:14:30;4.88;;;3.22;;
49530;SDS011;38889;30.622;104.088;2022-07-17T00:16:57;7.18;;;3.50;;
49530;SDS011;38889;30.622;104.088;2022-07-17T00:19:25;7.82;;;3.30;;
49530;SDS011;38889;30.622;104.088;2022-07-17T00:21:52;6.57;;;3.65;;
49530;SDS011;38889;30.622;104.088;2022-07-17T00:24:19;5.90;;;3.53;;
49530;SDS011;38889;30.622;104.088;2022-07-17T00:26:50;6.90;;;3.58;;
49530;SDS011;38889;30.622;104.088;2022-07-17T00:29:17;7.13;;;3.83;;
49530;SDS011;38889;30.622;104.088;2022-07-17T00:31:45;7.55;;;3.60;;
49530;SDS011;38889;30.622;104.088;2022-07-17T00:34:13;6.70;;;4.00;;
49530;SDS011;38889;30.622;104.088;2022-07-17T00:36:40;7.43;;;3.65;;
49530;SDS011;38889;30.622;104.088;2022-07-17T00:39:08;5.40;;;3.30;;
49530;SDS011;38889;30.622;104.088;2022-07-17T00:41:36;5.90;;;3.63;;
49530;SDS011;38889;30.622;104.088;2022-07-17T00:44:05;6.82;;;3.60;;
49530;SDS011;38889;30.622;104.088;2022-07-17T00:46:33;8.23;;;4.03;;
49530;SDS011;38889;30.622;104.088;2022-07-17T00:49:02;7.45;;;4.25;;
49530;SDS011;38889;30.622;104.088;2022-07-17T00:51:29;5.38;;;3.58;;
49530;SDS011;38889;30.622;104.088;2022-07-17T00:53:57;6.70;;;3.78;;
49530;SDS011;38889;30.622;104.088;2022-07-17T00:56:25;6.22;;;3.65;;
49530;SDS011;38889;30.622;104.088;2022-07-17T00:58:54;6.18;;;3.40;;
49530;SDS011;38889;30.622;104.088;2022-07-17T01:01:21;5.57;;;3.88;;
49530;SDS011;38889;30.622;104.088;2022-07-17T01:03:49;10.80;;;3.90;;
49530;SDS011;38889;30.622;104.088;2022-07-17T01:06:16;6.85;;;4.10;;
49530;SDS011;38889;30.622;104.088;2022-07-17T01:08:44;5.65;;;3.80;;
49530;SDS011;38889;30.622;104.088;2022-07-17T01:11:11;6.40;;;3.67;;
49530;SDS011;38889;30.622;104.088;2022-07-17T01:13:39;7.90;;;3.75;;
49530;SDS011;38889;30.622;104.088;2022-07-17T01:16:06;6.88;;;3.47;;
49530;SDS011;38889;30.622;104.088;2022-07-17T01:18:34;7.80;;;3.88;;
49530;SDS011;38889;30.622;104.088;2022-07-17T01:21:05;11.27;;;3.80;;
49530;SDS011;38889;30.622;104.088;2022-07-17T01:23:33;6.65;;;3.53;;
49530;SDS011;38889;30.622;104.088;2022-07-17T01:26:00;8.73;;;3.60;;
49530;SDS011;38889;30.622;104.088;2022-07-17T01:28:28;5.80;;;3.45;;
49530;SDS011;38889;30.622;104.088;2022-07-17T01:30:56;5.95;;;3.22;;
49530;SDS011;38889;30.622;104.088;2022-07-17T01:33:23;4.85;;;3.13;;
49530;SDS011;38889;30.622;104.088;2022-07-17T01:35:50;5.85;;;3.20;;
49530;SDS011;38889;30.622;104.088;2022-07-17T01:38:18;7.25;;;3.40;;
49530;SDS011;38889;30.622;104.088;2022-07-17T01:40:45;7.57;;;3.58;;
49530;SDS011;38889;30.622;104.088;2022-07-17T01:43:12;7.65;;;3.80;;
49530;SDS011;38889;30.622;104.088;2022-07-17T01:45:39;7.82;;;3.60;;
49530;SDS011;38889;30.622;104.088;2022-07-17T01:48:07;5.75;;;3.42;;
49530;SDS011;38889;30.622;104.088;2022-07-17T01:50:34;5.35;;;3.17;;
49530;SDS011;38889;30.622;104.088;2022-07-17T01:53:21;5.35;;;3.30;;
49530;SDS011;38889;30.622;104.088;2022-07-17T01:55:48;7.05;;;3.63;;
49530;SDS011;38889;30.622;104.088;2022-07-17T01:58:16;7.65;;;3.30;;
49530;SDS011;38889;30.622;104.088;2022-07-17T02:00:45;7.00;;;3.85;;
49530;SDS011;38889;30.622;104.088;2022-07-17T02:03:12;8.00;;;3.53;;
49530;SDS011;38889;30.622;104.088;2022-07-17T02:05:39;6.35;;;3.80;;
49530;SDS011;38889;30.622;104.088;2022-07-17T02:08:06;4.88;;;3.13;;
49530;SDS011;38889;30.622;104.088;2022-07-17T02:10:34;7.47;;;3.60;;
49530;SDS011;38889;30.622;104.088;2022-07-17T02:13:01;7.30;;;3.30;;
49530;SDS011;38889;30.622;104.088;2022-07-17T02:15:28;5.97;;;3.20;;
49530;SDS011;38889;30.622;104.088;2022-07-17T02:17:55;5.93;;;3.67;;
49530;SDS011;38889;30.622;104.088;2022-07-17T02:20:23;6.60;;;3.30;;
49530;SDS011;38889;30.622;104.088;2022-07-17T02:22:50;5.05;;;3.30;;
49530;SDS011;38889;30.622;104.088;2022-07-17T02:25:18;20.20;;;5.90;;
49530;SDS011;38889;30.622;104.088;2022-07-17T02:27:45;8.38;;;4.00;;
49530;SDS011;38889;30.622;104.088;2022-07-17T02:30:16;8.82;;;4.05;;
49530;SDS011;38889;30.622;104.088;2022-07-17T02:32:44;8.55;;;4.28;;
49530;SDS011;38889;30.622;104.088;2022-07-17T02:35:13;6.25;;;4.10;;
49530;SDS011;38889;30.622;104.088;2022-07-17T02:37:40;7.90;;;4.05;;
49530;SDS011;38889;30.622;104.088;2022-07-17T02:40:08;6.63;;;3.47;;
49530;SDS011;38889;30.622;104.088;2022-07-17T02:42:36;8.25;;;4.65;;
49530;SDS011;38889;30.622;104.088;2022-07-17T02:45:04;7.43;;;4.72;;
49530;SDS011;38889;30.622;104.088;2022-07-17T02:47:33;10.35;;;4.60;;
49530;SDS011;38889;30.622;104.088;2022-07-17T02:50:02;7.05;;;4.53;;
49530;SDS011;38889;30.622;104.088;2022-07-17T02:52:31;8.05;;;4.75;;
49530;SDS011;38889;30.622;104.088;2022-07-17T02:54:58;6.72;;;4.72;;
49530;SDS011;38889;30.622;104.088;2022-07-17T02:57:25;8.43;;;4.90;;
49530;SDS011;38889;30.622;104.088;2022-07-17T02:59:52;7.00;;;4.32;;
49530;SDS011;38889;30.622;104.088;2022-07-17T03:02:19;7.20;;;4.25;;
49530;SDS011;38889;30.622;104.088;2022-07-17T03:04:46;8.13;;;4.13;;
49530;SDS011;38889;30.622;104.088;2022-07-17T03:07:14;8.32;;;4.25;;
49530;SDS011;38889;30.622;104.088;2022-07-17T03:09:41;6.15;;;3.95;;
49530;SDS011;38889;30.622;104.088;2022-07-17T03:12:08;7.00;;;3.80;;
49530;SDS011;38889;30.622;104.088;2022-07-17T03:14:35;6.38;;;3.42;;
49530;SDS011;38889;30.622;104.088;2022-07-17T03:17:02;5.72;;;3.50;;
49530;SDS011;38889;30.622;104.088;2022-07-17T03:19:30;9.60;;;3.65;;
49530;SDS011;38889;30.622;104.088;2022-07-17T03:21:58;6.10;;;3.53;;
49530;SDS011;38889;30.622;104.088;2022-07-17T03:24:36;7.05;;;3.60;;
49530;SDS011;38889;30.622;104.088;2022-07-17T03:27:03;6.57;;;3.45;;
49530;SDS011;38889;30.622;104.088;2022-07-17T03:29:31;6.70;;;3.25;;
49530;SDS011;38889;30.622;104.088;2022-07-17T03:31:58;6.82;;;3.55;;
49530;SDS011;38889;30.622;104.088;2022-07-17T03:34:25;5.97;;;3.35;;
49530;SDS011;38889;30.622;104.088;2022-07-17T03:36:53;7.70;;;3.72;;
49530;SDS011;38889;30.622;104.088;2022-07-17T03:39:20;6.25;;;3.13;;
49530;SDS011;38889;30.622;104.088;2022-07-17T03:41:57;9.43;;;3.38;;
49530;SDS011;38889;30.622;104.088;2022-07-17T03:44:24;6.10;;;3.10;;
49530;SDS011;38889;30.622;104.088;2022-07-17T03:46:52;7.15;;;3.00;;
49530;SDS011;38889;30.622;104.088;2022-07-17T03:49:19;6.97;;;3.42;;
49530;SDS011;38889;30.622;104.088;2022-07-17T03:51:47;4.78;;;2.92;;
49530;SDS011;38889;30.622;104.088;2022-07-17T03:54:14;7.00;;;3.20;;
49530;SDS011;38889;30.622;104.088;2022-07-17T03:56:42;5.15;;;2.83;;
49530;SDS011;38889;30.622;104.088;2022-07-17T03:59:09;5.43;;;3.08;;
49530;SDS011;38889;30.622;104.088;2022-07-17T04:01:37;3.92;;;2.70;;
49530;SDS011;38889;30.622;104.088;2022-07-17T04:04:04;6.38;;;3.00;;
49530;SDS011;38889;30.622;104.088;2022-07-17T04:06:31;5.85;;;2.67;;
49530;SDS011;38889;30.622;104.088;2022-07-17T04:09:04;5.00;;;2.97;;
49530;SDS011;38889;30.622;104.088;2022-07-17T04:11:31;5.10;;;3.00;;
49530;SDS011;38889;30.622;104.088;2022-07-17T04:13:59;5.10;;;2.83;;
49530;SDS011;38889;30.622;104.088;2022-07-17T04:16:26;7.15;;;3.42;;
49530;SDS011;38889;30.622;104.088;2022-07-17T04:18:53;4.90;;;3.00;;
49530;SDS011;38889;30.622;104.088;2022-07-17T04:21:20;5.18;;;2.90;;
49530;SDS011;38889;30.622;104.088;2022-07-17T04:23:48;6.55;;;2.90;;
49530;SDS011;38889;30.622;104.088;2022-07-17T04:26:15;9.43;;;3.17;;
49530;SDS011;38889;30.622;104.088;2022-07-17T04:28:42;5.50;;;2.70;;
49530;SDS011;38889;30.622;104.088;2022-07-17T04:31:09;4.63;;;3.05;;
49530;SDS011;38889;30.622;104.088;2022-07-17T04:33:36;6.88;;;3.55;;
49530;SDS011;38889;30.622;104.088;2022-07-17T04:36:05;4.30;;;2.92;;
49530;SDS011;38889;30.622;104.088;2022-07-17T04:38:32;4.45;;;2.53;;
49530;SDS011;38889;30.622;104.088;2022-07-17T04:41:00;5.78;;;3.05;;
49530;SDS011;38889;30.622;104.088;2022-07-17T04:43:27;5.90;;;3.20;;
49530;SDS011;38889;30.622;104.088;2022-07-17T04:45:55;6.85;;;3.08;;
49530;SDS011;38889;30.622;104.088;2022-07-17T04:48:22;5.80;;;3.28;;
49530;SDS011;38889;30.622;104.088;2022-07-17T04:50:56;5.35;;;3.30;;
49530;SDS011;38889;30.622;104.088;2022-07-17T04:53:23;4.70;;;2.95;;
49530;SDS011;38889;30.622;104.088;2022-07-17T04:56:03;4.63;;;3.03;;
49530;SDS011;38889;30.622;104.088;2022-07-17T04:58:30;4.97;;;2.85;;
49530;SDS011;38889;30.622;104.088;2022-07-17T05:00:57;6.38;;;3.45;;
49530;SDS011;38889;30.622;104.088;2022-07-17T05:03:24;4.97;;;2.67;;
49530;SDS011;38889;30.622;104.088;2022-07-17T05:05:52;5.22;;;2.80;;
49530;SDS011;38889;30.622;104.088;2022-07-17T05:08:23;3.92;;;2.42;;
49530;SDS011;38889;30.622;104.088;2022-07-17T05:10:50;6.07;;;3.00;;
49530;SDS011;38889;30.622;104.088;2022-07-17T05:13:17;5.93;;;3.33;;
49530;SDS011;38889;30.622;104.088;2022-07-17T05:15:48;6.80;;;2.67;;
49530;SDS011;38889;30.622;104.088;2022-07-17T05:18:15;5.18;;;3.03;;
49530;SDS011;38889;30.622;104.088;2022-07-17T05:20:43;6.57;;;3.28;;
49530;SDS011;38889;30.622;104.088;2022-07-17T05:23:10;7.32;;;3.30;;
49530;SDS011;38889;30.622;104.088;2022-07-17T05:25:37;7.18;;;3.20;;
49530;SDS011;38889;30.622;104.088;2022-07-17T05:28:05;7.03;;;3.30;;
49530;SDS011;38889;30.622;104.088;2022-07-17T05:30:32;4.45;;;3.03;;
49530;SDS011;38889;30.622;104.088;2022-07-17T05:32:59;5.90;;;3.30;;
49530;SDS011;38889;30.622;104.088;2022-07-17T05:35:26;5.70;;;2.95;;
49530;SDS011;38889;30.622;104.088;2022-07-17T05:37:53;5.82;;;3.10;;
49530;SDS011;38889;30.622;104.088;2022-07-17T05:40:30;4.18;;;2.95;;
49530;SDS011;38889;30.622;104.088;2022-07-17T05:42:57;5.72;;;2.97;;
49530;SDS011;38889;30.622;104.088;2022-07-17T05:45:24;5.57;;;3.08;;
49530;SDS011;38889;30.622;104.088;2022-07-17T05:47:52;4.90;;;2.92;;
49530;SDS011;38889;30.622;104.088;2022-07-17T05:50:19;5.07;;;3.00;;
49530;SDS011;38889;30.622;104.088;2022-07-17T05:52:46;4.40;;;2.65;;
49530;SDS011;38889;30.622;104.088;2022-07-17T05:55:13;5.53;;;2.90;;
49530;SDS011;38889;30.622;104.088;2022-07-17T05:57:41;6.18;;;2.70;;
49530;SDS011;38889;30.622;104.088;2022-07-17T06:00:08;5.70;;;3.30;;
49530;SDS011;38889;30.622;104.088;2022-07-17T06:02:36;5.50;;;2.85;;
49530;SDS011;38889;30.622;104.088;2022-07-17T06:05:03;4.75;;;2.90;;
49530;SDS011;38889;30.622;104.088;2022-07-17T06:07:31;5.60;;;2.90;;
49530;SDS011;38889;30.622;104.088;2022-07-17T06:09:58;5.25;;;3.28;;
49530;SDS011;38889;30.622;104.088;2022-07-17T06:12:26;5.30;;;3.00;;
49530;SDS011;38889;30.622;104.088;2022-07-17T06:14:53;5.13;;;3.33;;
49530;SDS011;38889;30.622;104.088;2022-07-17T06:17:21;7.90;;;3.15;;
49530;SDS011;38889;30.622;104.088;2022-07-17T06:19:48;5.88;;;3.10;;
49530;SDS011;38889;30.622;104.088;2022-07-17T06:22:19;5.55;;;3.05;;
49530;SDS011;38889;30.622;104.088;2022-07-17T06:24:47;4.22;;;2.75;;
49530;SDS011;38889;30.622;104.088;2022-07-17T06:27:14;3.72;;;2.80;;
49530;SDS011;38889;30.622;104.088;2022-07-17T06:29:42;5.30;;;2.95;;
49530;SDS011;38889;30.622;104.088;2022-07-17T06:32:18;5.13;;;2.60;;
49530;SDS011;38889;30.622;104.088;2022-07-17T06:37:18;4.57;;;2.55;;
49530;SDS011;38889;30.622;104.088;2022-07-17T06:39:46;5.88;;;2.88;;
49530;SDS011;38889;30.622;104.088;2022-07-17T06:45:04;3.97;;;2.53;;
49530;SDS011;38889;30.622;104.088;2022-07-17T06:47:36;4.85;;;2.72;;
49530;SDS011;38889;30.622;104.088;2022-07-17T06:50:14;4.82;;;2.50;;
49530;SDS011;38889;30.622;104.088;2022-07-17T06:52:42;5.35;;;2.80;;
49530;SDS011;38889;30.622;104.088;2022-07-17T06:55:10;4.90;;;2.53;;
49530;SDS011;38889;30.622;104.088;2022-07-17T06:57:37;3.67;;;2.60;;
49530;SDS011;38889;30.622;104.088;2022-07-17T07:00:05;4.30;;;2.55;;
49530;SDS011;38889;30.622;104.088;2022-07-17T07:02:35;5.03;;;2.90;;
49530;SDS011;38889;30.622;104.088;2022-07-17T07:05:05;5.30;;;2.65;;
49530;SDS011;38889;30.622;104.088;2022-07-17T07:07:36;5.07;;;2.58;;
49530;SDS011;38889;30.622;104.088;2022-07-17T07:10:06;4.18;;;2.47;;
49530;SDS011;38889;30.622;104.088;2022-07-17T07:12:34;4.10;;;2.70;;
49530;SDS011;38889;30.622;104.088;2022-07-17T07:15:05;4.72;;;2.63;;
49530;SDS011;38889;30.622;104.088;2022-07-17T07:17:47;5.43;;;2.70;;
49530;SDS011;38889;30.622;104.088;2022-07-17T07:20:14;4.35;;;2.72;;
49530;SDS011;38889;30.622;104.088;2022-07-17T07:22:41;4.53;;;2.70;;
49530;SDS011;38889;30.622;104.088;2022-07-17T07:25:14;6.32;;;2.90;;
49530;SDS011;38889;30.622;104.088;2022-07-17T07:27:42;5.65;;;2.83;;
49530;SDS011;38889;30.622;104.088;2022-07-17T07:30:15;4.93;;;2.88;;
49530;SDS011;38889;30.622;104.088;2022-07-17T07:32:43;5.95;;;2.70;;
49530;SDS011;38889;30.622;104.088;2022-07-17T07:35:10;4.28;;;2.65;;
49530;SDS011;38889;30.622;104.088;2022-07-17T07:40:35;4.65;;;2.90;;
49530;SDS011;38889;30.622;104.088;2022-07-17T07:43:06;4.95;;;2.67;;
49530;SDS011;38889;30.622;104.088;2022-07-17T07:45:37;4.32;;;2.78;;
49530;SDS011;38889;30.622;104.088;2022-07-17T07:48:16;3.63;;;2.38;;
49530;SDS011;38889;30.622;104.088;2022-07-17T07:50:44;4.35;;;2.70;;
49530;SDS011;38889;30.622;104.088;2022-07-17T07:53:15;4.47;;;2.78;;
49530;SDS011;38889;30.622;104.088;2022-07-17T07:58:26;4.20;;;2.55;;
49530;SDS011;38889;30.622;104.088;2022-07-17T08:00:53;4.47;;;3.08;;
49530;SDS011;38889;30.622;104.088;2022-07-17T08:03:20;4.30;;;2.72;;
49530;SDS011;38889;30.622;104.088;2022-07-17T08:05:48;5.03;;;2.83;;
49530;SDS011;38889;30.622;104.088;2022-07-17T08:08:15;5.72;;;2.95;;
49530;SDS011;38889;30.622;104.088;2022-07-17T08:10:46;5.68;;;2.92;;
49530;SDS011;38889;30.622;104.088;2022-07-17T08:13:16;4.80;;;2.78;;
49530;SDS011;38889;30.622;104.088;2022-07-17T08:15:47;6.65;;;2.83;;
49530;SDS011;38889;30.622;104.088;2022-07-17T08:18:14;3.45;;;2.60;;
49530;SDS011;38889;30.622;104.088;2022-07-17T08:20:41;4.50;;;2.72;;
49530;SDS011;38889;30.622;104.088;2022-07-17T08:23:09;3.65;;;2.47;;
49530;SDS011;38889;30.622;104.088;2022-07-17T08:25:36;4.22;;;2.70;;
49530;SDS011;38889;30.622;104.088;2022-07-17T08:28:04;3.97;;;2.53;;
49530;SDS011;38889;30.622;104.088;2022-07-17T08:30:32;4.90;;;2.72;;
49530;SDS011;38889;30.622;104.088;2022-07-17T08:33:01;5.35;;;2.80;;
49530;SDS011;38889;30.622;104.088;2022-07-17T08:35:34;5.22;;;2.60;;
49530;SDS011;38889;30.622;104.088;2022-07-17T08:38:02;3.33;;;2.00;;
49530;SDS011;38889;30.622;104.088;2022-07-17T08:40:30;4.57;;;2.40;;
49530;SDS011;38889;30.622;104.088;2022-07-17T08:43:00;4.72;;;2.42;;
49530;SDS011;38889;30.622;104.088;2022-07-17T08:45:29;3.80;;;2.40;;
49530;SDS011;38889;30.622;104.088;2022-07-17T08:47:57;5.35;;;2.30;;
49530;SDS011;38889;30.622;104.088;2022-07-17T08:50:27;3.55;;;2.25;;
49530;SDS011;38889;30.622;104.088;2022-07-17T08:53:00;4.53;;;2.08;;
49530;SDS011;38889;30.622;104.088;2022-07-17T08:55:28;3.63;;;2.38;;
49530;SDS011;38889;30.622;104.088;2022-07-17T08:57:56;4.88;;;2.42;;
49530;SDS011;38889;30.622;104.088;2022-07-17T09:00:24;3.80;;;2.30;;
49530;SDS011;38889;30.622;104.088;2022-07-17T09:03:05;3.53;;;2.20;;
49530;SDS011;38889;30.622;104.088;2022-07-17T09:05:35;4.63;;;2.40;;
49530;SDS011;38889;30.622;104.088;2022-07-17T09:08:07;4.05;;;2.40;;
49530;SDS011;38889;30.622;104.088;2022-07-17T09:10:42;3.90;;;2.22;;
49530;SDS011;38889;30.622;104.088;2022-07-17T09:15:45;4.05;;;2.30;;
49530;SDS011;38889;30.622;104.088;2022-07-17T09:18:14;4.30;;;2.20;;
49530;SDS011;38889;30.622;104.088;2022-07-17T09:20:44;4.65;;;2.33;;
49530;SDS011;38889;30.622;104.088;2022-07-17T09:23:22;3.75;;;2.10;;
49530;SDS011;38889;30.622;104.088;2022-07-17T09:25:52;3.75;;;2.10;;
49530;SDS011;38889;30.622;104.088;2022-07-17T09:28:30;5.72;;;2.55;;
49530;SDS011;38889;30.622;104.088;2022-07-17T09:30:57;4.18;;;2.15;;
49530;SDS011;38889;30.622;104.088;2022-07-17T09:33:32;3.67;;;2.03;;
49530;SDS011;38889;30.622;104.088;2022-07-17T09:36:07;3.83;;;2.30;;
49530;SDS011;38889;30.622;104.088;2022-07-17T09:38:40;4.30;;;2.15;;
49530;SDS011;38889;30.622;104.088;2022-07-17T09:41:11;4.45;;;2.22;;
49530;SDS011;38889;30.622;104.088;2022-07-17T09:43:53;4.07;;;1.92;;
49530;SDS011;38889;30.622;104.088;2022-07-17T09:46:27;3.97;;;2.03;;
49530;SDS011;38889;30.622;104.088;2022-07-17T09:49:10;4.53;;;2.38;;
49530;SDS011;38889;30.622;104.088;2022-07-17T09:51:39;4.78;;;2.47;;
49530;SDS011;38889;30.622;104.088;2022-07-17T09:54:08;7.03;;;2.90;;
49530;SDS011;38889;30.622;104.088;2022-07-17T09:56:39;4.72;;;3.00;;
49530;SDS011;38889;30.622;104.088;2022-07-17T09:59:17;7.40;;;3.20;;
49530;SDS011;38889;30.622;104.088;2022-07-17T10:01:57;6.13;;;2.85;;
49530;SDS011;38889;30.622;104.088;2022-07-17T10:04:26;5.35;;;2.60;;
49530;SDS011;38889;30.622;104.088;2022-07-17T10:06:54;5.18;;;2.80;;
49530;SDS011;38889;30.622;104.088;2022-07-17T10:09:21;5.93;;;3.10;;
49530;SDS011;38889;30.622;104.088;2022-07-17T10:12:09;5.35;;;2.70;;
49530;SDS011;38889;30.622;104.088;2022-07-17T10:14:42;6.60;;;3.00;;
49530;SDS011;38889;30.622;104.088;2022-07-17T10:17:12;5.07;;;2.80;;
49530;SDS011;38889;30.622;104.088;2022-07-17T10:19:54;5.72;;;2.40;;
49530;SDS011;38889;30.622;104.088;2022-07-17T10:22:22;5.82;;;2.40;;
49530;SDS011;38889;30.622;104.088;2022-07-17T10:24:54;6.35;;;2.83;;
49530;SDS011;38889;30.622;104.088;2022-07-17T10:27:24;4.53;;;2.30;;
49530;SDS011;38889;30.622;104.088;2022-07-17T10:30:00;7.05;;;2.50;;
49530;SDS011;38889;30.622;104.088;2022-07-17T10:32:32;6.85;;;2.30;;
49530;SDS011;38889;30.622;104.088;2022-07-17T10:37:30;5.18;;;2.35;;
49530;SDS011;38889;30.622;104.088;2022-07-17T10:43:04;5.60;;;2.67;;
49530;SDS011;38889;30.622;104.088;2022-07-17T10:45:32;7.97;;;2.60;;
49530;SDS011;38889;30.622;104.088;2022-07-17T10:48:02;5.13;;;2.47;;
49530;SDS011;38889;30.622;104.088;2022-07-17T10:50:37;5.72;;;2.70;;
49530;SDS011;38889;30.622;104.088;2022-07-17T10:53:17;4.93;;;2.72;;
49530;SDS011;38889;30.622;104.088;2022-07-17T10:55:54;5.30;;;2.70;;
49530;SDS011;38889;30.622;104.088;2022-07-17T10:58:41;4.53;;;3.10;;
49530;SDS011;38889;30.622;104.088;2022-07-17T11:06:16;5.07;;;2.63;;
49530;SDS011;38889;30.622;104.088;2022-07-17T11:09:05;5.65;;;3.08;;
49530;SDS011;38889;30.622;104.088;2022-07-17T11:11:36;6.05;;;3.10;;
49530;SDS011;38889;30.622;104.088;2022-07-17T11:16:45;6.63;;;2.95;;
49530;SDS011;38889;30.622;104.088;2022-07-17T11:19:25;8.07;;;3.70;;
49530;SDS011;38889;30.622;104.088;2022-07-17T11:21:58;6.93;;;3.40;;
49530;SDS011;38889;30.622;104.088;2022-07-17T11:24:40;6.53;;;3.20;;
49530;SDS011;38889;30.622;104.088;2022-07-17T11:27:17;5.50;;;3.13;;
49530;SDS011;38889;30.622;104.088;2022-07-17T11:29:55;5.55;;;2.95;;
49530;SDS011;38889;30.622;104.088;2022-07-17T11:32:24;8.02;;;3.53;;
49530;SDS011;38889;30.622;104.088;2022-07-17T11:35:01;6.35;;;3.15;;
49530;SDS011;38889;30.622;104.088;2022-07-17T11:37:39;5.50;;;2.92;;
49530;SDS011;38889;30.622;104.088;2022-07-17T11:40:06;7.45;;;3.05;;
49530;SDS011;38889;30.622;104.088;2022-07-17T11:42:34;5.20;;;3.00;;
49530;SDS011;38889;30.622;104.088;2022-07-17T11:45:01;6.60;;;2.95;;
49530;SDS011;38889;30.622;104.088;2022-07-17T11:47:29;6.55;;;2.90;;
49530;SDS011;38889;30.622;104.088;2022-07-17T11:50:13;5.18;;;2.50;;
49530;SDS011;38889;30.622;104.088;2022-07-17T11:52:49;6.28;;;3.22;;
49530;SDS011;38889;30.622;104.088;2022-07-17T11:55:16;4.85;;;2.63;;
49530;SDS011;38889;30.622;104.088;2022-07-17T11:57:47;4.30;;;2.72;;
49530;SDS011;38889;30.622;104.088;2022-07-17T12:00:17;5.47;;;2.75;;
49530;SDS011;38889;30.622;104.088;2022-07-17T12:02:46;4.55;;;2.50;;
49530;SDS011;38889;30.622;104.088;2022-07-17T12:05:27;5.18;;;2.90;;
49530;SDS011;38889;30.622;104.088;2022-07-17T12:07:55;5.30;;;2.83;;
49530;SDS011;38889;30.622;104.088;2022-07-17T12:10:24;4.95;;;2.90;;
49530;SDS011;38889;30.622;104.088;2022-07-17T12:12:59;5.80;;;2.85;;
49530;SDS011;38889;30.622;104.088;2022-07-17T12:15:36;4.75;;;2.45;;
49530;SDS011;38889;30.622;104.088;2022-07-17T12:18:04;5.13;;;2.80;;
49530;SDS011;38889;30.622;104.088;2022-07-17T12:20:43;6.03;;;2.70;;
49530;SDS011;38889;30.622;104.088;2022-07-17T12:23:31;5.88;;;2.72;;
49530;SDS011;38889;30.622;104.088;2022-07-17T12:26:13;5.40;;;2.67;;
49530;SDS011;38889;30.622;104.088;2022-07-17T12:28:42;6.05;;;2.50;;
49530;SDS011;38889;30.622;104.088;2022-07-17T12:31:13;4.70;;;2.63;;
49530;SDS011;38889;30.622;104.088;2022-07-17T12:33:44;4.75;;;2.55;;
49530;SDS011;38889;30.622;104.088;2022-07-17T12:36:11;5.13;;;2.35;;
49530;SDS011;38889;30.622;104.088;2022-07-17T12:38:39;5.93;;;2.70;;
49530;SDS011;38889;30.622;104.088;2022-07-17T12:41:06;5.80;;;2.75;;
49530;SDS011;38889;30.622;104.088;2022-07-17T12:43:33;5.60;;;2.45;;
49530;SDS011;38889;30.622;104.088;2022-07-17T12:46:01;4.50;;;2.40;;
49530;SDS011;38889;30.622;104.088;2022-07-17T12:48:28;5.78;;;2.90;;
49530;SDS011;38889;30.622;104.088;2022-07-17T12:50:57;4.38;;;2.63;;
49530;SDS011;38889;30.622;104.088;2022-07-17T12:53:24;5.63;;;2.35;;
49530;SDS011;38889;30.622;104.088;2022-07-17T12:55:51;4.63;;;2.55;;
49530;SDS011;38889;30.622;104.088;2022-07-17T12:58:18;5.25;;;2.67;;
49530;SDS011;38889;30.622;104.088;2022-07-17T13:00:47;5.68;;;2.67;;
49530;SDS011;38889;30.622;104.088;2022-07-17T13:03:14;6.03;;;3.00;;
49530;SDS011;38889;30.622;104.088;2022-07-17T13:05:42;6.57;;;2.95;;
49530;SDS011;38889;30.622;104.088;2022-07-17T13:08:09;5.57;;;3.08;;
49530;SDS011;38889;30.622;104.088;2022-07-17T13:10:36;5.03;;;3.30;;
49530;SDS011;38889;30.622;104.088;2022-07-17T13:13:11;7.13;;;3.78;;
49530;SDS011;38889;30.622;104.088;2022-07-17T13:15:38;7.22;;;4.28;;
49530;SDS011;38889;30.622;104.088;2022-07-17T13:18:06;9.32;;;5.15;;
49530;SDS011;38889;30.622;104.088;2022-07-17T13:20:33;6.30;;;4.70;;
49530;SDS011;38889;30.622;104.088;2022-07-17T13:23:00;8.88;;;5.40;;
49530;SDS011;38889;30.622;104.088;2022-07-17T13:25:29;8.93;;;5.53;;
49530;SDS011;38889;30.622;104.088;2022-07-17T13:27:56;7.85;;;4.78;;
49530;SDS011;38889;30.622;104.088;2022-07-17T13:30:24;6.15;;;4.78;;
49530;SDS011;38889;30.622;104.088;2022-07-17T13:32:52;8.90;;;4.78;;
49530;SDS011;38889;30.622;104.088;2022-07-17T13:35:19;8.10;;;5.10;;
49530;SDS011;38889;30.622;104.088;2022-07-17T13:37:48;8.05;;;4.75;;
49530;SDS011;38889;30.622;104.088;2022-07-17T13:40:15;5.78;;;4.50;;
49530;SDS011;38889;30.622;104.088;2022-07-17T13:42:45;6.78;;;4.10;;
49530;SDS011;38889;30.622;104.088;2022-07-17T13:45:12;6.78;;;4.60;;
49530;SDS011;38889;30.622;104.088;2022-07-17T13:47:40;8.38;;;4.28;;
49530;SDS011;38889;30.622;104.088;2022-07-17T13:50:07;6.03;;;4.22;;
49530;SDS011;38889;30.622;104.088;2022-07-17T13:52:36;6.57;;;4.25;;
49530;SDS011;38889;30.622;104.088;2022-07-17T13:55:06;6.30;;;4.30;;
49530;SDS011;38889;30.622;104.088;2022-07-17T13:57:51;5.70;;;4.18;;
49530;SDS011;38889;30.622;104.088;2022-07-17T14:00:19;5.15;;;3.83;;
49530;SDS011;38889;30.622;104.088;2022-07-17T14:02:46;6.20;;;4.10;;
49530;SDS011;38889;30.622;104.088;2022-07-17T14:05:13;5.28;;;3.83;;
49530;SDS011;38889;30.622;104.088;2022-07-17T14:07:41;5.80;;;3.60;;
49530;SDS011;38889;30.622;104.088;2022-07-17T14:10:08;6.38;;;3.88;;
49530;SDS011;38889;30.622;104.088;2022-07-17T14:12:36;4.53;;;3.53;;
49530;SDS011;38889;30.622;104.088;2022-07-17T14:15:04;6.05;;;3.90;;
49530;SDS011;38889;30.622;104.088;2022-07-17T14:17:33;6.35;;;3.90;;
49530;SDS011;38889;30.622;104.088;2022-07-17T14:20:00;6.05;;;3.95;;
49530;SDS011;38889;30.622;104.088;2022-07-17T14:22:28;5.78;;;3.92;;
49530;SDS011;38889;30.622;104.088;2022-07-17T14:24:56;5.45;;;3.45;;
49530;SDS011;38889;30.622;104.088;2022-07-17T14:27:24;4.50;;;3.65;;
49530;SDS011;38889;30.622;104.088;2022-07-17T14:29:51;6.30;;;3.67;;
49530;SDS011;38889;30.622;104.088;2022-07-17T14:32:19;6.65;;;3.53;;
49530;SDS011;38889;30.622;104.088;2022-07-17T14:34:47;4.25;;;3.22;;
49530;SDS011;38889;30.622;104.088;2022-07-17T14:37:20;5.13;;;3.40;;
49530;SDS011;38889;30.622;104.088;2022-07-17T14:39:48;5.10;;;3.60;;
49530;SDS011;38889;30.622;104.088;2022-07-17T14:42:15;5.43;;;3.50;;
49530;SDS011;38889;30.622;104.088;2022-07-17T14:44:43;4.32;;;3.25;;
49530;SDS011;38889;30.622;104.088;2022-07-17T14:47:11;5.75;;;3.60;;
49530;SDS011;38889;30.622;104.088;2022-07-17T14:49:38;5.13;;;3.47;;
49530;SDS011;38889;30.622;104.088;2022-07-17T14:52:06;5.13;;;3.10;;
49530;SDS011;38889;30.622;104.088;2022-07-17T14:54:33;5.57;;;3.55;;
49530;SDS011;38889;30.622;104.088;2022-07-17T14:57:01;5.63;;;3.20;;
49530;SDS011;38889;30.622;104.088;2022-07-17T14:59:28;5.78;;;3.00;;
49530;SDS011;38889;30.622;104.088;2022-07-17T15:01:56;4.38;;;3.65;;